sensor_id;sensor_type;location;lat;lon;timestamp;P1;durP1;ratioP1;P2;durP2;ratioP2
55063;SDS011;40963;52.168;21.296;2022-11-27T00:01:59;32.85;;;12.10;;
55063;SDS011;40963;52.168;21.296;2022-11-27T00:04:25;27.92;;;11.02;;
55063;SDS011;40963;52.168;21.296;2022-11-27T00:06:50;37.40;;;13.25;;
55063;SDS011;40963;52.168;21.296;2022-11-27T00:09:16;33.00;;;11.45;;
55063;SDS011;40963;52.168;21.296;2022-11-27T00:11:42;31.42;;;10.77;;
55063;SDS011;40963;52.168;21.296;2022-11-27T00:14:12;31.27;;;11.00;;
55063;SDS011;40963;52.168;21.296;2022-11-27T00:16:39;26.73;;;10.05;;
55063;SDS011;40963;52.168;21.296;2022-11-27T00:19:06;33.58;;;11.85;;
55063;SDS011;40963;52.168;21.296;2022-11-27T00:21:33;35.45;;;12.25;;
55063;SDS011;40963;52.168;21.296;2022-11-27T00:24:01;28.48;;;10.80;;
55063;SDS011;40963;52.168;21.296;2022-11-27T00:26:28;27.77;;;11.75;;
55063;SDS011;40963;52.168;21.296;2022-11-27T00:28:55;35.65;;;12.38;;
55063;SDS011;40963;52.168;21.296;2022-11-27T00:31:22;29.60;;;11.63;;
55063;SDS011;40963;52.168;21.296;2022-11-27T00:33:56;32.28;;;10.25;;
55063;SDS011;40963;52.168;21.296;2022-11-27T00:36:23;34.55;;;11.48;;
55063;SDS011;40963;52.168;21.296;2022-11-27T00:38:49;32.85;;;13.68;;
55063;SDS011;40963;52.168;21.296;2022-11-27T00:41:23;25.13;;;10.13;;
55063;SDS011;40963;52.168;21.296;2022-11-27T00:43:50;28.65;;;11.82;;
55063;SDS011;40963;52.168;21.296;2022-11-27T00:46:16;30.45;;;12.27;;
55063;SDS011;40963;52.168;21.296;2022-11-27T00:48:44;30.25;;;11.65;;
55063;SDS011;40963;52.168;21.296;2022-11-27T00:51:12;33.50;;;10.60;;
55063;SDS011;40963;52.168;21.296;2022-11-27T00:53:40;28.55;;;12.75;;
55063;SDS011;40963;52.168;21.296;2022-11-27T00:56:06;27.77;;;10.65;;
55063;SDS011;40963;52.168;21.296;2022-11-27T00:58:33;34.25;;;12.07;;
55063;SDS011;40963;52.168;21.296;2022-11-27T01:01:00;36.55;;;12.35;;
55063;SDS011;40963;52.168;21.296;2022-11-27T01:03:28;37.20;;;13.00;;
55063;SDS011;40963;52.168;21.296;2022-11-27T01:05:54;32.63;;;11.85;;
55063;SDS011;40963;52.168;21.296;2022-11-27T01:08:20;32.22;;;11.68;;
55063;SDS011;40963;52.168;21.296;2022-11-27T01:10:50;32.33;;;11.07;;
55063;SDS011;40963;52.168;21.296;2022-11-27T01:13:35;31.63;;;11.10;;
55063;SDS011;40963;52.168;21.296;2022-11-27T01:16:06;36.10;;;12.25;;
55063;SDS011;40963;52.168;21.296;2022-11-27T01:18:33;31.55;;;12.90;;
55063;SDS011;40963;52.168;21.296;2022-11-27T01:21:00;25.83;;;9.48;;
55063;SDS011;40963;52.168;21.296;2022-11-27T01:23:26;26.60;;;10.48;;
55063;SDS011;40963;52.168;21.296;2022-11-27T01:25:52;30.40;;;11.15;;
55063;SDS011;40963;52.168;21.296;2022-11-27T01:28:18;24.27;;;9.88;;
55063;SDS011;40963;52.168;21.296;2022-11-27T01:30:48;28.05;;;10.05;;
55063;SDS011;40963;52.168;21.296;2022-11-27T01:33:14;28.35;;;10.70;;
55063;SDS011;40963;52.168;21.296;2022-11-27T01:35:40;29.38;;;11.38;;
55063;SDS011;40963;52.168;21.296;2022-11-27T01:38:05;32.05;;;11.98;;
55063;SDS011;40963;52.168;21.296;2022-11-27T01:40:31;27.25;;;10.88;;
55063;SDS011;40963;52.168;21.296;2022-11-27T01:42:57;33.75;;;12.55;;
55063;SDS011;40963;52.168;21.296;2022-11-27T01:45:23;37.17;;;11.15;;
55063;SDS011;40963;52.168;21.296;2022-11-27T01:47:50;30.02;;;11.02;;
55063;SDS011;40963;52.168;21.296;2022-11-27T01:50:26;30.95;;;11.52;;
55063;SDS011;40963;52.168;21.296;2022-11-27T01:52:56;34.08;;;12.07;;
55063;SDS011;40963;52.168;21.296;2022-11-27T01:58:10;27.30;;;9.40;;
55063;SDS011;40963;52.168;21.296;2022-11-27T02:00:39;30.42;;;12.07;;
55063;SDS011;40963;52.168;21.296;2022-11-27T02:03:05;33.45;;;11.18;;
55063;SDS011;40963;52.168;21.296;2022-11-27T02:05:31;37.45;;;12.63;;
55063;SDS011;40963;52.168;21.296;2022-11-27T02:07:58;33.92;;;12.27;;
55063;SDS011;40963;52.168;21.296;2022-11-27T02:10:52;38.10;;;12.10;;
55063;SDS011;40963;52.168;21.296;2022-11-27T02:14:17;33.90;;;11.63;;
55063;SDS011;40963;52.168;21.296;2022-11-27T02:21:54;31.35;;;12.02;;
55063;SDS011;40963;52.168;21.296;2022-11-27T02:24:45;34.65;;;12.70;;
55063;SDS011;40963;52.168;21.296;2022-11-27T02:30:22;32.05;;;12.48;;
55063;SDS011;40963;52.168;21.296;2022-11-27T02:32:50;33.95;;;11.98;;
55063;SDS011;40963;52.168;21.296;2022-11-27T02:35:21;39.08;;;12.98;;
55063;SDS011;40963;52.168;21.296;2022-11-27T02:40:50;31.70;;;12.10;;
55063;SDS011;40963;52.168;21.296;2022-11-27T02:43:29;38.10;;;12.55;;
55063;SDS011;40963;52.168;21.296;2022-11-27T02:46:13;47.35;;;14.93;;
55063;SDS011;40963;52.168;21.296;2022-11-27T02:48:50;38.90;;;14.73;;
55063;SDS011;40963;52.168;21.296;2022-11-27T02:51:21;36.72;;;13.82;;
55063;SDS011;40963;52.168;21.296;2022-11-27T02:53:54;37.70;;;14.98;;
55063;SDS011;40963;52.168;21.296;2022-11-27T02:56:24;47.78;;;15.13;;
55063;SDS011;40963;52.168;21.296;2022-11-27T02:58:53;42.60;;;14.60;;
55063;SDS011;40963;52.168;21.296;2022-11-27T03:01:23;43.97;;;15.57;;
55063;SDS011;40963;52.168;21.296;2022-11-27T03:03:54;50.25;;;16.50;;
55063;SDS011;40963;52.168;21.296;2022-11-27T03:06:26;47.17;;;16.55;;
55063;SDS011;40963;52.168;21.296;2022-11-27T03:08:56;46.30;;;16.42;;
55063;SDS011;40963;52.168;21.296;2022-11-27T03:11:31;41.50;;;15.55;;
55063;SDS011;40963;52.168;21.296;2022-11-27T03:13:58;50.58;;;16.50;;
55063;SDS011;40963;52.168;21.296;2022-11-27T03:19:18;50.88;;;17.25;;
55063;SDS011;40963;52.168;21.296;2022-11-27T03:21:53;49.15;;;17.60;;
55063;SDS011;40963;52.168;21.296;2022-11-27T03:24:21;48.35;;;16.63;;
55063;SDS011;40963;52.168;21.296;2022-11-27T03:26:47;50.47;;;17.55;;
55063;SDS011;40963;52.168;21.296;2022-11-27T03:29:17;50.97;;;18.20;;
55063;SDS011;40963;52.168;21.296;2022-11-27T03:31:47;52.88;;;17.92;;
55063;SDS011;40963;52.168;21.296;2022-11-27T03:34:13;51.35;;;18.48;;
55063;SDS011;40963;52.168;21.296;2022-11-27T03:36:40;53.70;;;18.17;;
55063;SDS011;40963;52.168;21.296;2022-11-27T03:39:06;48.22;;;18.30;;
55063;SDS011;40963;52.168;21.296;2022-11-27T03:44:10;53.08;;;17.85;;
55063;SDS011;40963;52.168;21.296;2022-11-27T03:52:26;57.97;;;19.40;;
55063;SDS011;40963;52.168;21.296;2022-11-27T03:57:45;70.15;;;20.92;;
55063;SDS011;40963;52.168;21.296;2022-11-27T04:00:16;58.67;;;19.65;;
55063;SDS011;40963;52.168;21.296;2022-11-27T04:02:44;65.60;;;19.98;;
55063;SDS011;40963;52.168;21.296;2022-11-27T04:05:12;57.47;;;20.35;;
55063;SDS011;40963;52.168;21.296;2022-11-27T04:07:38;80.40;;;20.15;;
55063;SDS011;40963;52.168;21.296;2022-11-27T04:10:04;64.03;;;20.73;;
55063;SDS011;40963;52.168;21.296;2022-11-27T04:12:31;68.35;;;21.27;;
55063;SDS011;40963;52.168;21.296;2022-11-27T04:14:57;67.57;;;22.42;;
55063;SDS011;40963;52.168;21.296;2022-11-27T04:17:22;63.00;;;21.05;;
55063;SDS011;40963;52.168;21.296;2022-11-27T04:19:48;61.15;;;20.77;;
55063;SDS011;40963;52.168;21.296;2022-11-27T04:22:14;56.90;;;20.40;;
55063;SDS011;40963;52.168;21.296;2022-11-27T04:24:39;70.78;;;21.75;;
55063;SDS011;40963;52.168;21.296;2022-11-27T04:27:05;65.13;;;21.27;;
55063;SDS011;40963;52.168;21.296;2022-11-27T04:29:30;68.80;;;22.52;;
55063;SDS011;40963;52.168;21.296;2022-11-27T04:31:57;57.22;;;20.75;;
55063;SDS011;40963;52.168;21.296;2022-11-27T04:34:23;67.72;;;20.25;;
55063;SDS011;40963;52.168;21.296;2022-11-27T04:36:48;60.15;;;19.83;;
55063;SDS011;40963;52.168;21.296;2022-11-27T04:39:14;74.50;;;20.73;;
55063;SDS011;40963;52.168;21.296;2022-11-27T04:41:40;67.78;;;21.88;;
55063;SDS011;40963;52.168;21.296;2022-11-27T04:44:06;71.68;;;22.00;;
55063;SDS011;40963;52.168;21.296;2022-11-27T04:46:32;67.68;;;21.98;;
55063;SDS011;40963;52.168;21.296;2022-11-27T04:48:57;60.92;;;20.63;;
55063;SDS011;40963;52.168;21.296;2022-11-27T04:51:23;65.00;;;22.20;;
55063;SDS011;40963;52.168;21.296;2022-11-27T04:53:49;69.43;;;21.20;;
55063;SDS011;40963;52.168;21.296;2022-11-27T04:56:14;64.05;;;20.58;;
55063;SDS011;40963;52.168;21.296;2022-11-27T04:58:40;63.80;;;20.48;;
55063;SDS011;40963;52.168;21.296;2022-11-27T05:01:07;62.17;;;20.30;;
55063;SDS011;40963;52.168;21.296;2022-11-27T05:03:33;56.75;;;20.25;;
55063;SDS011;40963;52.168;21.296;2022-11-27T05:05:59;71.65;;;22.27;;
55063;SDS011;40963;52.168;21.296;2022-11-27T05:08:25;60.13;;;20.63;;
55063;SDS011;40963;52.168;21.296;2022-11-27T05:11:03;68.50;;;22.50;;
55063;SDS011;40963;52.168;21.296;2022-11-27T05:13:35;67.82;;;21.90;;
55063;SDS011;40963;52.168;21.296;2022-11-27T05:16:01;66.88;;;21.33;;
55063;SDS011;40963;52.168;21.296;2022-11-27T05:18:27;63.28;;;22.20;;
55063;SDS011;40963;52.168;21.296;2022-11-27T05:20:57;66.45;;;21.73;;
55063;SDS011;40963;52.168;21.296;2022-11-27T05:23:24;66.68;;;22.02;;
55063;SDS011;40963;52.168;21.296;2022-11-27T05:25:50;64.78;;;22.05;;
55063;SDS011;40963;52.168;21.296;2022-11-27T05:28:16;70.68;;;22.23;;
55063;SDS011;40963;52.168;21.296;2022-11-27T05:30:42;75.80;;;21.45;;
55063;SDS011;40963;52.168;21.296;2022-11-27T05:33:07;65.32;;;20.98;;
55063;SDS011;40963;52.168;21.296;2022-11-27T05:35:33;72.35;;;24.38;;
55063;SDS011;40963;52.168;21.296;2022-11-27T05:37:59;78.93;;;23.23;;
55063;SDS011;40963;52.168;21.296;2022-11-27T05:40:24;67.90;;;22.05;;
55063;SDS011;40963;52.168;21.296;2022-11-27T05:42:50;77.38;;;23.90;;
55063;SDS011;40963;52.168;21.296;2022-11-27T05:45:16;72.18;;;22.58;;
55063;SDS011;40963;52.168;21.296;2022-11-27T05:47:41;80.05;;;23.08;;
55063;SDS011;40963;52.168;21.296;2022-11-27T05:50:07;82.18;;;23.08;;
55063;SDS011;40963;52.168;21.296;2022-11-27T05:52:33;63.72;;;21.88;;
55063;SDS011;40963;52.168;21.296;2022-11-27T05:54:59;73.85;;;21.30;;
55063;SDS011;40963;52.168;21.296;2022-11-27T05:57:24;72.60;;;24.08;;
55063;SDS011;40963;52.168;21.296;2022-11-27T05:59:50;74.75;;;23.85;;
55063;SDS011;40963;52.168;21.296;2022-11-27T06:02:16;78.18;;;23.88;;
55063;SDS011;40963;52.168;21.296;2022-11-27T06:04:41;75.47;;;24.02;;
55063;SDS011;40963;52.168;21.296;2022-11-27T06:07:07;69.75;;;23.45;;
55063;SDS011;40963;52.168;21.296;2022-11-27T06:09:33;65.25;;;22.42;;
55063;SDS011;40963;52.168;21.296;2022-11-27T06:12:01;72.20;;;23.45;;
55063;SDS011;40963;52.168;21.296;2022-11-27T06:14:26;76.75;;;22.35;;
55063;SDS011;40963;52.168;21.296;2022-11-27T06:16:52;74.18;;;23.52;;
55063;SDS011;40963;52.168;21.296;2022-11-27T06:19:18;71.85;;;22.70;;
55063;SDS011;40963;52.168;21.296;2022-11-27T06:21:43;62.65;;;22.60;;
55063;SDS011;40963;52.168;21.296;2022-11-27T06:24:10;76.00;;;22.98;;
55063;SDS011;40963;52.168;21.296;2022-11-27T06:26:36;72.63;;;22.88;;
55063;SDS011;40963;52.168;21.296;2022-11-27T06:29:02;71.13;;;23.10;;
55063;SDS011;40963;52.168;21.296;2022-11-27T06:31:29;72.50;;;22.92;;
55063;SDS011;40963;52.168;21.296;2022-11-27T06:33:56;72.05;;;22.23;;
55063;SDS011;40963;52.168;21.296;2022-11-27T06:36:23;70.97;;;22.20;;
55063;SDS011;40963;52.168;21.296;2022-11-27T06:38:51;72.82;;;23.55;;
55063;SDS011;40963;52.168;21.296;2022-11-27T06:41:18;78.93;;;24.98;;
55063;SDS011;40963;52.168;21.296;2022-11-27T06:43:45;81.05;;;25.60;;
55063;SDS011;40963;52.168;21.296;2022-11-27T06:46:12;69.95;;;22.77;;
55063;SDS011;40963;52.168;21.296;2022-11-27T06:48:40;66.15;;;24.65;;
55063;SDS011;40963;52.168;21.296;2022-11-27T06:51:07;80.63;;;25.17;;
55063;SDS011;40963;52.168;21.296;2022-11-27T06:53:35;77.75;;;24.23;;
55063;SDS011;40963;52.168;21.296;2022-11-27T06:56:05;80.63;;;26.75;;
55063;SDS011;40963;52.168;21.296;2022-11-27T06:58:33;69.30;;;22.17;;
55063;SDS011;40963;52.168;21.296;2022-11-27T07:01:01;78.15;;;24.17;;
55063;SDS011;40963;52.168;21.296;2022-11-27T07:03:28;74.20;;;24.02;;
55063;SDS011;40963;52.168;21.296;2022-11-27T07:05:54;78.07;;;24.35;;
55063;SDS011;40963;52.168;21.296;2022-11-27T07:08:23;74.72;;;24.48;;
55063;SDS011;40963;52.168;21.296;2022-11-27T07:10:48;69.82;;;22.48;;
55063;SDS011;40963;52.168;21.296;2022-11-27T07:13:14;62.45;;;21.88;;
55063;SDS011;40963;52.168;21.296;2022-11-27T07:15:40;70.60;;;23.08;;
55063;SDS011;40963;52.168;21.296;2022-11-27T07:18:06;70.72;;;23.95;;
55063;SDS011;40963;52.168;21.296;2022-11-27T07:20:31;65.63;;;22.23;;
55063;SDS011;40963;52.168;21.296;2022-11-27T07:22:57;74.38;;;23.52;;
55063;SDS011;40963;52.168;21.296;2022-11-27T07:25:23;65.75;;;23.08;;
55063;SDS011;40963;52.168;21.296;2022-11-27T07:27:48;65.57;;;23.25;;
55063;SDS011;40963;52.168;21.296;2022-11-27T07:30:14;80.03;;;23.92;;
55063;SDS011;40963;52.168;21.296;2022-11-27T07:32:40;67.18;;;20.52;;
55063;SDS011;40963;52.168;21.296;2022-11-27T07:35:06;80.32;;;24.42;;
55063;SDS011;40963;52.168;21.296;2022-11-27T07:37:32;75.38;;;22.25;;
55063;SDS011;40963;52.168;21.296;2022-11-27T07:39:58;74.97;;;23.33;;
55063;SDS011;40963;52.168;21.296;2022-11-27T07:42:23;75.10;;;24.30;;
55063;SDS011;40963;52.168;21.296;2022-11-27T07:44:49;80.30;;;23.52;;
55063;SDS011;40963;52.168;21.296;2022-11-27T07:47:15;73.85;;;21.75;;
55063;SDS011;40963;52.168;21.296;2022-11-27T07:49:40;80.43;;;23.80;;
55063;SDS011;40963;52.168;21.296;2022-11-27T07:52:06;82.43;;;25.88;;
55063;SDS011;40963;52.168;21.296;2022-11-27T07:54:32;120.10;;;35.88;;
55063;SDS011;40963;52.168;21.296;2022-11-27T07:56:58;76.75;;;24.25;;
55063;SDS011;40963;52.168;21.296;2022-11-27T07:59:24;100.25;;;27.67;;
55063;SDS011;40963;52.168;21.296;2022-11-27T08:01:50;90.90;;;26.63;;
55063;SDS011;40963;52.168;21.296;2022-11-27T08:04:16;105.38;;;30.52;;
55063;SDS011;40963;52.168;21.296;2022-11-27T08:06:41;96.15;;;28.25;;
55063;SDS011;40963;52.168;21.296;2022-11-27T08:09:07;114.53;;;29.67;;
55063;SDS011;40963;52.168;21.296;2022-11-27T08:11:32;90.45;;;26.92;;
55063;SDS011;40963;52.168;21.296;2022-11-27T08:14:00;102.70;;;29.33;;
55063;SDS011;40963;52.168;21.296;2022-11-27T08:16:27;125.47;;;32.17;;
55063;SDS011;40963;52.168;21.296;2022-11-27T08:18:53;108.60;;;28.27;;
55063;SDS011;40963;52.168;21.296;2022-11-27T08:21:19;113.88;;;31.42;;
55063;SDS011;40963;52.168;21.296;2022-11-27T08:23:45;175.85;;;58.63;;
55063;SDS011;40963;52.168;21.296;2022-11-27T08:26:11;152.80;;;51.25;;
55063;SDS011;40963;52.168;21.296;2022-11-27T08:28:38;106.70;;;35.88;;
55063;SDS011;40963;52.168;21.296;2022-11-27T08:31:04;104.75;;;28.65;;
55063;SDS011;40963;52.168;21.296;2022-11-27T08:33:32;122.53;;;29.20;;
55063;SDS011;40963;52.168;21.296;2022-11-27T08:35:58;102.78;;;27.67;;
55063;SDS011;40963;52.168;21.296;2022-11-27T08:38:25;104.90;;;28.85;;
55063;SDS011;40963;52.168;21.296;2022-11-27T08:40:58;117.20;;;30.75;;
55063;SDS011;40963;52.168;21.296;2022-11-27T08:43:26;132.93;;;34.05;;
55063;SDS011;40963;52.168;21.296;2022-11-27T08:45:52;111.10;;;30.40;;
55063;SDS011;40963;52.168;21.296;2022-11-27T08:48:18;106.00;;;28.13;;
55063;SDS011;40963;52.168;21.296;2022-11-27T08:50:45;113.15;;;31.00;;
55063;SDS011;40963;52.168;21.296;2022-11-27T08:53:11;105.57;;;30.15;;
55063;SDS011;40963;52.168;21.296;2022-11-27T08:55:37;124.38;;;31.58;;
55063;SDS011;40963;52.168;21.296;2022-11-27T08:58:03;111.57;;;32.88;;
55063;SDS011;40963;52.168;21.296;2022-11-27T09:00:30;144.45;;;34.30;;
55063;SDS011;40963;52.168;21.296;2022-11-27T09:02:59;121.65;;;31.80;;
55063;SDS011;40963;52.168;21.296;2022-11-27T09:05:26;147.40;;;39.13;;
55063;SDS011;40963;52.168;21.296;2022-11-27T09:07:52;78.93;;;25.60;;
55063;SDS011;40963;52.168;21.296;2022-11-27T09:10:18;104.43;;;28.63;;
55063;SDS011;40963;52.168;21.296;2022-11-27T09:12:44;139.98;;;37.40;;
55063;SDS011;40963;52.168;21.296;2022-11-27T09:15:10;127.72;;;29.80;;
55063;SDS011;40963;52.168;21.296;2022-11-27T09:17:37;134.65;;;38.05;;
55063;SDS011;40963;52.168;21.296;2022-11-27T09:20:03;126.72;;;34.35;;
55063;SDS011;40963;52.168;21.296;2022-11-27T09:22:29;112.63;;;34.05;;
55063;SDS011;40963;52.168;21.296;2022-11-27T09:24:55;128.05;;;33.38;;
55063;SDS011;40963;52.168;21.296;2022-11-27T09:27:21;126.35;;;34.38;;
55063;SDS011;40963;52.168;21.296;2022-11-27T09:29:47;164.77;;;42.25;;
55063;SDS011;40963;52.168;21.296;2022-11-27T09:32:13;139.02;;;37.92;;
55063;SDS011;40963;52.168;21.296;2022-11-27T09:34:39;121.72;;;32.28;;
55063;SDS011;40963;52.168;21.296;2022-11-27T09:37:05;118.45;;;29.50;;
55063;SDS011;40963;52.168;21.296;2022-11-27T09:39:32;142.90;;;36.97;;
55063;SDS011;40963;52.168;21.296;2022-11-27T09:41:59;131.05;;;38.83;;
55063;SDS011;40963;52.168;21.296;2022-11-27T09:47:13;127.15;;;35.10;;
55063;SDS011;40963;52.168;21.296;2022-11-27T09:55:01;120.47;;;31.35;;
55063;SDS011;40963;52.168;21.296;2022-11-27T09:58:04;132.13;;;36.80;;
55063;SDS011;40963;52.168;21.296;2022-11-27T10:00:31;123.93;;;33.45;;
55063;SDS011;40963;52.168;21.296;2022-11-27T10:02:57;127.78;;;35.95;;
55063;SDS011;40963;52.168;21.296;2022-11-27T10:05:35;103.22;;;30.60;;
55063;SDS011;40963;52.168;21.296;2022-11-27T10:08:32;126.80;;;35.30;;
55063;SDS011;40963;52.168;21.296;2022-11-27T10:21:58;130.77;;;32.58;;
55063;SDS011;40963;52.168;21.296;2022-11-27T10:24:49;130.13;;;33.38;;
55063;SDS011;40963;52.168;21.296;2022-11-27T10:27:30;104.22;;;30.85;;
55063;SDS011;40963;52.168;21.296;2022-11-27T10:30:00;112.15;;;32.58;;
55063;SDS011;40963;52.168;21.296;2022-11-27T10:32:28;113.85;;;29.58;;
55063;SDS011;40963;52.168;21.296;2022-11-27T10:35:01;117.28;;;30.33;;
55063;SDS011;40963;52.168;21.296;2022-11-27T10:40:22;120.32;;;29.98;;
55063;SDS011;40963;52.168;21.296;2022-11-27T10:43:37;120.50;;;31.30;;
55063;SDS011;40963;52.168;21.296;2022-11-27T10:48:25;109.60;;;31.65;;
55063;SDS011;40963;52.168;21.296;2022-11-27T10:50:54;99.28;;;30.70;;
55063;SDS011;40963;52.168;21.296;2022-11-27T10:53:33;137.35;;;36.45;;
55063;SDS011;40963;52.168;21.296;2022-11-27T11:01:25;127.47;;;35.65;;
55063;SDS011;40963;52.168;21.296;2022-11-27T11:04:05;103.70;;;29.58;;
55063;SDS011;40963;52.168;21.296;2022-11-27T11:06:33;96.82;;;28.85;;
55063;SDS011;40963;52.168;21.296;2022-11-27T11:09:15;108.70;;;33.10;;
55063;SDS011;40963;52.168;21.296;2022-11-27T11:11:46;179.93;;;43.50;;
55063;SDS011;40963;52.168;21.296;2022-11-27T11:14:22;185.85;;;45.10;;
55063;SDS011;40963;52.168;21.296;2022-11-27T11:16:49;114.10;;;31.17;;
55063;SDS011;40963;52.168;21.296;2022-11-27T11:21:53;96.28;;;33.15;;
55063;SDS011;40963;52.168;21.296;2022-11-27T11:29:27;108.07;;;30.45;;
55063;SDS011;40963;52.168;21.296;2022-11-27T11:32:03;107.32;;;29.27;;
55063;SDS011;40963;52.168;21.296;2022-11-27T11:34:35;94.80;;;30.75;;
55063;SDS011;40963;52.168;21.296;2022-11-27T11:37:07;90.95;;;29.65;;
55063;SDS011;40963;52.168;21.296;2022-11-27T11:42:33;126.30;;;40.72;;
55063;SDS011;40963;52.168;21.296;2022-11-27T11:47:26;96.03;;;30.92;;
55063;SDS011;40963;52.168;21.296;2022-11-27T11:49:53;117.80;;;37.08;;
55063;SDS011;40963;52.168;21.296;2022-11-27T12:00:20;92.10;;;30.15;;
55063;SDS011;40963;52.168;21.296;2022-11-27T12:09:00;103.97;;;29.50;;
55063;SDS011;40963;52.168;21.296;2022-11-27T12:14:23;95.13;;;27.92;;
55063;SDS011;40963;52.168;21.296;2022-11-27T12:25:32;96.00;;;31.60;;
55063;SDS011;40963;52.168;21.296;2022-11-27T12:28:25;94.53;;;32.03;;
55063;SDS011;40963;52.168;21.296;2022-11-27T12:31:41;96.82;;;31.85;;
55063;SDS011;40963;52.168;21.296;2022-11-27T12:34:03;101.25;;;33.78;;
55063;SDS011;40963;52.168;21.296;2022-11-27T12:45:03;120.03;;;40.80;;
55063;SDS011;40963;52.168;21.296;2022-11-27T12:47:10;108.85;;;37.00;;
55063;SDS011;40963;52.168;21.296;2022-11-27T12:49:41;116.88;;;40.70;;
55063;SDS011;40963;52.168;21.296;2022-11-27T12:52:27;116.43;;;36.60;;
55063;SDS011;40963;52.168;21.296;2022-11-27T12:55:16;111.07;;;37.00;;
55063;SDS011;40963;52.168;21.296;2022-11-27T12:57:49;105.03;;;35.10;;
55063;SDS011;40963;52.168;21.296;2022-11-27T13:00:23;112.35;;;34.95;;
55063;SDS011;40963;52.168;21.296;2022-11-27T13:05:39;124.45;;;39.58;;
55063;SDS011;40963;52.168;21.296;2022-11-27T13:08:19;125.65;;;37.72;;
55063;SDS011;40963;52.168;21.296;2022-11-27T13:13:26;116.32;;;37.47;;
55063;SDS011;40963;52.168;21.296;2022-11-27T13:21:34;108.95;;;36.35;;
55063;SDS011;40963;52.168;21.296;2022-11-27T13:24:03;95.15;;;35.15;;
55063;SDS011;40963;52.168;21.296;2022-11-27T13:26:32;116.07;;;36.75;;
55063;SDS011;40963;52.168;21.296;2022-11-27T13:29:07;115.70;;;38.75;;
55063;SDS011;40963;52.168;21.296;2022-11-27T13:32:01;122.47;;;45.03;;
55063;SDS011;40963;52.168;21.296;2022-11-27T13:34:28;177.57;;;64.65;;
55063;SDS011;40963;52.168;21.296;2022-11-27T13:37:00;165.07;;;57.58;;
55063;SDS011;40963;52.168;21.296;2022-11-27T13:39:36;133.68;;;46.78;;
55063;SDS011;40963;52.168;21.296;2022-11-27T13:42:05;138.05;;;45.60;;
55063;SDS011;40963;52.168;21.296;2022-11-27T13:44:43;127.90;;;44.28;;
55063;SDS011;40963;52.168;21.296;2022-11-27T13:47:17;135.77;;;47.22;;
55063;SDS011;40963;52.168;21.296;2022-11-27T13:49:55;144.18;;;50.78;;
55063;SDS011;40963;52.168;21.296;2022-11-27T13:52:31;135.43;;;44.93;;
55063;SDS011;40963;52.168;21.296;2022-11-27T13:54:58;128.65;;;48.67;;
55063;SDS011;40963;52.168;21.296;2022-11-27T13:57:26;126.30;;;41.80;;
55063;SDS011;40963;52.168;21.296;2022-11-27T14:00:00;130.48;;;46.03;;
55063;SDS011;40963;52.168;21.296;2022-11-27T14:05:08;133.70;;;40.50;;
55063;SDS011;40963;52.168;21.296;2022-11-27T14:07:39;119.10;;;40.85;;
55063;SDS011;40963;52.168;21.296;2022-11-27T14:10:14;137.95;;;46.40;;
55063;SDS011;40963;52.168;21.296;2022-11-27T14:12:55;144.82;;;46.40;;
55063;SDS011;40963;52.168;21.296;2022-11-27T14:15:28;144.35;;;47.28;;
55063;SDS011;40963;52.168;21.296;2022-11-27T14:18:05;129.73;;;43.90;;
55063;SDS011;40963;52.168;21.296;2022-11-27T14:21:01;109.25;;;39.45;;
55063;SDS011;40963;52.168;21.296;2022-11-27T14:23:35;112.53;;;38.13;;
55063;SDS011;40963;52.168;21.296;2022-11-27T14:28:39;101.90;;;36.55;;
55063;SDS011;40963;52.168;21.296;2022-11-27T14:31:29;97.55;;;34.25;;
55063;SDS011;40963;52.168;21.296;2022-11-27T14:33:57;119.60;;;39.63;;
55063;SDS011;40963;52.168;21.296;2022-11-27T14:36:27;135.55;;;45.83;;
55063;SDS011;40963;52.168;21.296;2022-11-27T14:38:55;123.28;;;42.25;;
55063;SDS011;40963;52.168;21.296;2022-11-27T14:41:23;114.32;;;39.88;;
55063;SDS011;40963;52.168;21.296;2022-11-27T14:44:00;141.95;;;49.03;;
55063;SDS011;40963;52.168;21.296;2022-11-27T14:46:28;136.25;;;50.58;;
55063;SDS011;40963;52.168;21.296;2022-11-27T14:48:56;167.85;;;52.78;;
55063;SDS011;40963;52.168;21.296;2022-11-27T14:51:25;205.15;;;66.60;;
55063;SDS011;40963;52.168;21.296;2022-11-27T14:53:53;158.18;;;49.88;;
55063;SDS011;40963;52.168;21.296;2022-11-27T14:56:23;121.60;;;41.90;;
55063;SDS011;40963;52.168;21.296;2022-11-27T14:58:54;167.85;;;55.13;;
55063;SDS011;40963;52.168;21.296;2022-11-27T15:01:24;160.23;;;51.50;;
55063;SDS011;40963;52.168;21.296;2022-11-27T15:04:31;134.45;;;45.47;;
55063;SDS011;40963;52.168;21.296;2022-11-27T15:06:59;151.68;;;51.30;;
55063;SDS011;40963;52.168;21.296;2022-11-27T15:09:28;133.98;;;42.63;;
55063;SDS011;40963;52.168;21.296;2022-11-27T15:11:57;152.75;;;49.70;;
55063;SDS011;40963;52.168;21.296;2022-11-27T15:14:42;97.95;;;36.00;;
55063;SDS011;40963;52.168;21.296;2022-11-27T15:17:13;118.63;;;40.65;;
55063;SDS011;40963;52.168;21.296;2022-11-27T15:19:42;138.32;;;47.08;;
55063;SDS011;40963;52.168;21.296;2022-11-27T15:22:13;128.00;;;44.40;;
55063;SDS011;40963;52.168;21.296;2022-11-27T15:24:41;159.98;;;54.67;;
55063;SDS011;40963;52.168;21.296;2022-11-27T15:29:39;159.55;;;54.25;;
55063;SDS011;40963;52.168;21.296;2022-11-27T15:32:15;157.82;;;50.42;;
55063;SDS011;40963;52.168;21.296;2022-11-27T15:34:42;125.22;;;41.90;;
55063;SDS011;40963;52.168;21.296;2022-11-27T15:37:18;110.53;;;39.42;;
55063;SDS011;40963;52.168;21.296;2022-11-27T15:39:55;121.18;;;38.75;;
55063;SDS011;40963;52.168;21.296;2022-11-27T15:42:21;117.95;;;38.83;;
55063;SDS011;40963;52.168;21.296;2022-11-27T15:44:48;137.73;;;43.53;;
55063;SDS011;40963;52.168;21.296;2022-11-27T15:49:53;111.82;;;39.30;;
55063;SDS011;40963;52.168;21.296;2022-11-27T15:52:19;113.28;;;39.42;;
55063;SDS011;40963;52.168;21.296;2022-11-27T15:54:45;120.38;;;41.03;;
55063;SDS011;40963;52.168;21.296;2022-11-27T15:57:11;113.25;;;38.58;;
55063;SDS011;40963;52.168;21.296;2022-11-27T15:59:37;113.93;;;39.10;;
55063;SDS011;40963;52.168;21.296;2022-11-27T16:02:03;113.47;;;36.60;;
55063;SDS011;40963;52.168;21.296;2022-11-27T16:04:29;115.07;;;37.85;;
55063;SDS011;40963;52.168;21.296;2022-11-27T16:06:55;110.45;;;37.75;;
55063;SDS011;40963;52.168;21.296;2022-11-27T16:09:21;117.72;;;39.75;;
55063;SDS011;40963;52.168;21.296;2022-11-27T16:11:47;128.60;;;41.90;;
55063;SDS011;40963;52.168;21.296;2022-11-27T16:14:12;121.07;;;42.40;;
55063;SDS011;40963;52.168;21.296;2022-11-27T16:16:38;133.98;;;43.00;;
55063;SDS011;40963;52.168;21.296;2022-11-27T16:19:04;134.55;;;43.25;;
55063;SDS011;40963;52.168;21.296;2022-11-27T16:21:30;126.07;;;42.97;;
55063;SDS011;40963;52.168;21.296;2022-11-27T16:23:58;124.07;;;43.83;;